Time;durP1;ratioP1;P1;durP2;ratioP2;P2;SDS_P1;SDS_P2;PMS_P1;PMS_P2;Temp;Humidity;BMP_temperature;BMP_pressure;BME280_temperature;BME280_humidity;BME280_pressure;Samples;Min_cycle;Max_cycle;Signal;HPM_P1;HPM_P2
2022/03/25 00:01:54;;;;;;;;;;;;;;;7.66;nan;101550.41;5013737;28;19978;-70
2022/03/25 00:04:19;;;;;;;;;;;;;;;7.57;nan;101553.69;5008696;28;19994;-70
2022/03/25 00:06:44;;;;;;;;;;;;;;;7.55;nan;101556.41;5010927;28;19921;-70
2022/03/25 00:09:09;;;;;;;;;;;;;;;7.52;nan;101561.06;5010589;28;19918;-70
2022/03/25 00:11:35;;;;;;;;;;;;;;;7.50;nan;101555.91;5011901;28;19970;-69
2022/03/25 00:14:01;;;;;;;;;;;;;;;7.57;nan;101551.06;5010059;28;19917;-70
2022/03/25 00:16:26;;;;;;;;;;;;;;;7.57;nan;101559.78;5009761;28;19921;-70
2022/03/25 00:18:51;;;;;;;;;;;;;;;7.53;nan;101558.34;5011080;28;20323;-70
2022/03/25 00:21:16;;;;;;;;;;;;;;;7.42;nan;101548.53;5011851;28;19917;-70
2022/03/25 00:23:41;;;;;;;;;;;;;;;7.33;nan;101546.53;5007688;28;19921;-70
2022/03/25 00:26:07;;;;;;;;;;;;;;;7.30;nan;101546.78;5010876;28;20338;-72
2022/03/25 00:28:32;;;;;;;;;;;;;;;7.28;nan;101543.41;4999424;28;19972;-71
2022/03/25 00:30:57;;;;;;;;;;;;;;;7.24;nan;101555.06;5005001;28;19917;-71
2022/03/25 00:33:22;;;;;;;;;;;;;;;7.15;nan;101547.78;5009421;28;19979;-72
2022/03/25 00:35:47;;;;;;;;;;;;;;;7.04;nan;101553.81;5011296;28;19921;-71
2022/03/25 00:38:13;;;;;;;;;;;;;;;6.95;nan;101546.53;5010477;28;20000;-71
2022/03/25 00:40:38;;;;;;;;;;;;;;;6.84;nan;101549.88;5007919;28;19917;-71
2022/03/25 00:43:06;;;;;;;;;;;;;;;6.75;nan;101545.25;5009845;28;19917;-71
2022/03/25 00:45:31;;;;;;;;;;;;;;;6.66;nan;101543.22;5011089;28;19917;-71
2022/03/25 00:47:57;;;;;;;;;;;;;;;6.56;nan;101543.81;5010455;28;19952;-72
2022/03/25 00:50:23;;;;;;;;;;;;;;;6.51;nan;101552.97;5010049;28;19925;-72
2022/03/25 00:52:50;;;;;;;;;;;;;;;6.44;nan;101542.00;5001703;28;19968;-71
2022/03/25 00:55:15;;;;;;;;;;;;;;;6.38;nan;101542.38;5011006;28;20381;-71
2022/03/25 00:57:40;;;;;;;;;;;;;;;6.32;nan;101537.56;5010287;28;19964;-71
2022/03/25 01:00:06;;;;;;;;;;;;;;;6.34;nan;101541.75;5009467;28;20354;-72
2022/03/25 01:02:31;;;;;;;;;;;;;;;6.37;nan;101533.66;5011009;28;19921;-71
2022/03/25 01:04:56;;;;;;;;;;;;;;;6.41;nan;101538.72;5010277;28;20067;-71
2022/03/25 01:07:21;;;;;;;;;;;;;;;6.38;nan;101537.13;5010185;28;20431;-71
2022/03/25 01:09:47;;;;;;;;;;;;;;;6.38;nan;101534.50;5007966;28;19918;-72
2022/03/25 01:12:12;;;;;;;;;;;;;;;6.37;nan;101530.22;5009578;28;19959;-72
2022/03/25 01:14:37;;;;;;;;;;;;;;;6.36;nan;101529.38;5010654;28;19917;-72
2022/03/25 01:17:03;;;;;;;;;;;;;;;6.39;nan;101528.31;5002696;28;20389;-71
2022/03/25 01:19:28;;;;;;;;;;;;;;;6.45;nan;101527.06;5010529;28;19917;-71
2022/03/25 01:21:56;;;;;;;;;;;;;;;6.43;nan;101524.53;5009999;28;20349;-71
2022/03/25 01:24:23;;;;;;;;;;;;;;;6.39;nan;101523.06;5008977;28;20302;-71
2022/03/25 01:26:48;;;;;;;;;;;;;;;6.42;nan;101522.03;5009129;28;19967;-71
2022/03/25 01:29:13;;;;;;;;;;;;;;;6.42;nan;101522.03;5002265;28;20290;-72
2022/03/25 01:31:39;;;;;;;;;;;;;;;6.36;nan;101528.50;5003874;28;19925;-71
2022/03/25 01:34:04;;;;;;;;;;;;;;;6.29;nan;101522.84;5009714;28;19925;-71
2022/03/25 01:36:30;;;;;;;;;;;;;;;6.23;nan;101515.34;5005282;28;19917;-72
2022/03/25 01:38:55;;;;;;;;;;;;;;;6.16;nan;101522.75;5010022;28;19922;-72
2022/03/25 01:41:20;;;;;;;;;;;;;;;6.14;nan;101519.38;5010428;28;20421;-72
2022/03/25 01:43:52;;;;;;;;;;;;;;;6.09;nan;101518.00;5001705;28;20004;-72
2022/03/25 01:46:18;;;;;;;;;;;;;;;6.03;nan;101514.00;5011218;28;19987;-72
2022/03/25 01:48:43;;;;;;;;;;;;;;;6.00;nan;101516.81;5011209;28;19952;-72
2022/03/25 01:51:08;;;;;;;;;;;;;;;6.01;nan;101517.66;5011843;28;20367;-71
2022/03/25 01:53:33;;;;;;;;;;;;;;;6.01;nan;101520.28;5005928;28;19991;-71
2022/03/25 01:56:00;;;;;;;;;;;;;;;6.05;nan;101519.13;5013149;28;19917;-71
2022/03/25 01:58:27;;;;;;;;;;;;;;;6.02;nan;101524.59;5009095;28;19925;-71
2022/03/25 02:00:52;;;;;;;;;;;;;;;5.97;nan;101518.78;5009436;28;19917;-71
2022/03/25 02:03:18;;;;;;;;;;;;;;;5.92;nan;101513.81;5010228;28;19924;-71
2022/03/25 02:05:44;;;;;;;;;;;;;;;5.85;nan;101517.75;5008962;28;19917;-72
2022/03/25 02:08:10;;;;;;;;;;;;;;;5.87;nan;101513.25;5009209;28;19920;-72
2022/03/25 02:10:36;;;;;;;;;;;;;;;5.86;nan;101519.44;5009072;28;20298;-72
2022/03/25 02:13:01;;;;;;;;;;;;;;;5.82;nan;101517.97;5007164;28;19929;-72
2022/03/25 02:15:33;;;;;;;;;;;;;;;5.74;nan;101519.28;5009501;28;20021;-72
2022/03/25 02:18:01;;;;;;;;;;;;;;;5.70;nan;101520.41;5008114;28;19917;-72
2022/03/25 02:20:27;;;;;;;;;;;;;;;5.69;nan;101521.31;5007994;28;19940;-72
2022/03/25 02:22:52;;;;;;;;;;;;;;;5.70;nan;101517.78;5009672;28;19917;-70
2022/03/25 02:25:20;;;;;;;;;;;;;;;5.67;nan;101520.59;5010688;28;20084;-72
2022/03/25 02:27:46;;;;;;;;;;;;;;;5.59;nan;101517.59;5007389;28;19968;-72
2022/03/25 02:30:12;;;;;;;;;;;;;;;5.50;nan;101520.78;5008803;28;19921;-72
2022/03/25 02:32:39;;;;;;;;;;;;;;;5.41;nan;101518.72;5007690;28;19925;-72
2022/03/25 02:35:05;;;;;;;;;;;;;;;5.31;nan;101514.06;5003967;28;19922;-72
2022/03/25 02:37:30;;;;;;;;;;;;;;;5.22;nan;101514.63;5002780;28;19924;-72
2022/03/25 02:39:55;;;;;;;;;;;;;;;5.12;nan;101513.47;5008103;28;19920;-72
2022/03/25 02:42:21;;;;;;;;;;;;;;;5.00;nan;101512.41;5009163;28;20398;-72
2022/03/25 02:44:47;;;;;;;;;;;;;;;4.92;nan;101516.44;5008706;28;20016;-72
2022/03/25 02:47:12;;;;;;;;;;;;;;;4.81;nan;101512.66;5001830;28;20013;-72
2022/03/25 02:49:38;;;;;;;;;;;;;;;4.73;nan;101506.22;5009260;28;20033;-72
2022/03/25 02:52:03;;;;;;;;;;;;;;;4.64;nan;101513.66;5007903;28;19929;-72
2022/03/25 02:54:28;;;;;;;;;;;;;;;4.59;nan;101514.88;5007829;28;20298;-72
2022/03/25 02:56:53;;;;;;;;;;;;;;;4.51;nan;101515.31;5011303;28;19927;-71
2022/03/25 02:59:19;;;;;;;;;;;;;;;4.43;nan;101512.28;5009918;28;20336;-72
2022/03/25 03:01:44;;;;;;;;;;;;;;;4.34;nan;101520.66;5008104;28;19921;-72
2022/03/25 03:04:09;;;;;;;;;;;;;;;4.27;nan;101512.31;5005213;28;19917;-72
2022/03/25 03:06:34;;;;;;;;;;;;;;;4.20;nan;101511.81;5012681;28;20003;-72
2022/03/25 03:08:59;;;;;;;;;;;;;;;4.15;nan;101507.78;5009240;28;19921;-72
2022/03/25 03:11:25;;;;;;;;;;;;;;;4.15;nan;101520.88;5011864;28;20386;-72
2022/03/25 03:13:50;;;;;;;;;;;;;;;4.12;nan;101518.41;5004525;28;20059;-72
2022/03/25 03:16:15;;;;;;;;;;;;;;;4.08;nan;101522.97;5009362;28;19968;-71
2022/03/25 03:18:40;;;;;;;;;;;;;;;3.99;nan;101519.09;5012699;28;20008;-72
2022/03/25 03:21:06;;;;;;;;;;;;;;;3.93;nan;101521.19;5012287;28;20267;-72
2022/03/25 03:23:31;;;;;;;;;;;;;;;3.86;nan;101510.22;5007565;28;19921;-72
2022/03/25 03:25:56;;;;;;;;;;;;;;;3.85;nan;101515.56;5011808;28;19952;-72
2022/03/25 03:28:21;;;;;;;;;;;;;;;3.81;nan;101518.34;5018320;28;20192;-72
2022/03/25 03:30:46;;;;;;;;;;;;;;;3.76;nan;101511.66;5011987;28;20605;-72
2022/03/25 03:33:11;;;;;;;;;;;;;;;3.69;nan;101513.75;5010609;28;19921;-72
2022/03/25 03:35:37;;;;;;;;;;;;;;;3.64;nan;101510.56;5007973;28;19917;-72
2022/03/25 03:38:03;;;;;;;;;;;;;;;3.59;nan;101516.03;5011604;28;20056;-72
2022/03/25 03:40:28;;;;;;;;;;;;;;;3.54;nan;101515.44;5010783;28;19918;-72
2022/03/25 03:42:53;;;;;;;;;;;;;;;3.48;nan;101515.78;5011472;28;19932;-72
2022/03/25 03:45:19;;;;;;;;;;;;;;;3.44;nan;101508.19;5012154;28;19913;-72
2022/03/25 03:47:44;;;;;;;;;;;;;;;3.43;nan;101509.91;5012075;28;20004;-72
2022/03/25 03:50:11;;;;;;;;;;;;;;;3.41;nan;101511.81;5008298;28;19932;-72
2022/03/25 03:52:37;;;;;;;;;;;;;;;3.37;nan;101512.88;5011467;28;19949;-72
2022/03/25 03:55:03;;;;;;;;;;;;;;;3.32;nan;101514.91;5012037;28;20397;-72
2022/03/25 03:57:28;;;;;;;;;;;;;;;3.26;nan;101513.44;5011990;28;20257;-72
2022/03/25 03:59:54;;;;;;;;;;;;;;;3.22;nan;101518.91;5010022;28;19921;-72
2022/03/25 04:02:20;;;;;;;;;;;;;;;3.15;nan;101521.84;5013067;28;19913;-72
2022/03/25 04:04:46;;;;;;;;;;;;;;;3.14;nan;101511.47;5012115;28;19925;-72
2022/03/25 04:07:11;;;;;;;;;;;;;;;3.14;nan;101520.13;5009609;28;19956;-72
2022/03/25 04:09:37;;;;;;;;;;;;;;;3.13;nan;101513.22;5009220;28;19924;-72
2022/03/25 04:12:02;;;;;;;;;;;;;;;3.12;nan;101524.63;5007319;28;20146;-72
2022/03/25 04:14:27;;;;;;;;;;;;;;;3.07;nan;101529.22;5008259;28;19921;-72
2022/03/25 04:16:52;;;;;;;;;;;;;;;3.02;nan;101522.56;5011604;28;20007;-72
2022/03/25 04:19:17;;;;;;;;;;;;;;;2.97;nan;101522.78;5010016;28;20011;-72
2022/03/25 04:21:43;;;;;;;;;;;;;;;2.92;nan;101525.63;5002973;28;19952;-72
2022/03/25 04:24:08;;;;;;;;;;;;;;;2.89;nan;101523.19;5011094;28;19925;-72
2022/03/25 04:26:33;;;;;;;;;;;;;;;2.88;nan;101521.47;5009701;28;20031;-72
2022/03/25 04:28:58;;;;;;;;;;;;;;;2.85;nan;101531.25;5010599;28;19932;-72
2022/03/25 04:31:23;;;;;;;;;;;;;;;2.82;nan;101526.19;5011472;28;19995;-72
2022/03/25 04:33:49;;;;;;;;;;;;;;;2.78;nan;101524.63;5012139;28;19913;-72
2022/03/25 04:36:14;;;;;;;;;;;;;;;2.71;nan;101524.09;5004048;28;20074;-72
2022/03/25 04:38:40;;;;;;;;;;;;;;;2.66;nan;101532.16;5011433;28;19917;-72
2022/03/25 04:41:08;;;;;;;;;;;;;;;2.62;nan;101529.78;5010108;28;20374;-72
2022/03/25 04:43:33;;;;;;;;;;;;;;;2.60;nan;101527.25;5002722;28;19917;-71
2022/03/25 04:45:58;;;;;;;;;;;;;;;2.58;nan;101531.69;5010752;28;19923;-72
2022/03/25 04:48:23;;;;;;;;;;;;;;;2.57;nan;101530.00;5010985;28;19966;-72
2022/03/25 04:50:48;;;;;;;;;;;;;;;2.57;nan;101532.59;5011113;28;19999;-72
2022/03/25 04:53:15;;;;;;;;;;;;;;;2.55;nan;101531.84;5006342;28;20000;-72
2022/03/25 04:55:40;;;;;;;;;;;;;;;2.54;nan;101531.00;5008462;28;20009;-72
2022/03/25 04:58:05;;;;;;;;;;;;;;;2.51;nan;101533.75;5004311;28;19933;-72
2022/03/25 05:00:30;;;;;;;;;;;;;;;2.50;nan;101536.44;5009454;28;20389;-72
2022/03/25 05:02:56;;;;;;;;;;;;;;;2.49;nan;101534.75;5011229;28;20015;-72
2022/03/25 05:05:21;;;;;;;;;;;;;;;2.48;nan;101541.75;5009163;28;19924;-72
2022/03/25 05:07:47;;;;;;;;;;;;;;;2.50;nan;101545.13;5007357;28;20097;-72
2022/03/25 05:10:13;;;;;;;;;;;;;;;2.47;nan;101532.22;5010102;28;19917;-72
2022/03/25 05:12:39;;;;;;;;;;;;;;;2.46;nan;101540.13;5007481;28;20020;-72
2022/03/25 05:15:04;;;;;;;;;;;;;;;2.42;nan;101538.59;5001635;28;20368;-72
2022/03/25 05:17:30;;;;;;;;;;;;;;;2.38;nan;101537.03;5008851;28;19922;-72
2022/03/25 05:19:55;;;;;;;;;;;;;;;2.35;nan;101540.66;5009254;28;19940;-72
2022/03/25 05:22:21;;;;;;;;;;;;;;;2.34;nan;101539.81;5009793;28;19939;-72
2022/03/25 05:24:46;;;;;;;;;;;;;;;2.39;nan;101541.34;5009964;28;19913;-72
2022/03/25 05:27:11;;;;;;;;;;;;;;;2.39;nan;101539.59;5009102;28;19917;-72
2022/03/25 05:29:36;;;;;;;;;;;;;;;2.42;nan;101549.03;4999674;28;19917;-72
2022/03/25 05:32:01;;;;;;;;;;;;;;;2.45;nan;101546.25;5005635;28;19965;-72
2022/03/25 05:34:27;;;;;;;;;;;;;;;2.47;nan;101555.72;5009510;28;20350;-72
2022/03/25 05:36:52;;;;;;;;;;;;;;;2.48;nan;101559.16;5010167;28;19917;-72
2022/03/25 05:39:17;;;;;;;;;;;;;;;2.49;nan;101558.25;5011917;28;20408;-72
2022/03/25 05:41:42;;;;;;;;;;;;;;;2.49;nan;101561.72;5002692;28;19971;-72
2022/03/25 05:44:08;;;;;;;;;;;;;;;2.49;nan;101572.16;4994360;28;20004;-71
2022/03/25 05:46:34;;;;;;;;;;;;;;;2.50;nan;101570.38;5007212;28;20008;-72
2022/03/25 05:48:59;;;;;;;;;;;;;;;2.50;nan;101573.00;5009950;28;19948;-72
2022/03/25 05:51:25;;;;;;;;;;;;;;;2.51;nan;101578.16;5003491;28;19960;-72
2022/03/25 05:53:50;;;;;;;;;;;;;;;2.54;nan;101579.75;5004830;28;19924;-72
2022/03/25 05:56:15;;;;;;;;;;;;;;;2.57;nan;101577.00;5008735;28;19952;-72
2022/03/25 05:58:40;;;;;;;;;;;;;;;2.62;nan;101582.88;5006862;28;20394;-72
2022/03/25 06:01:07;;;;;;;;;;;;;;;2.69;nan;101583.38;5006496;28;19917;-72
2022/03/25 06:03:32;;;;;;;;;;;;;;;2.75;nan;101583.09;5009574;28;19914;-72
2022/03/25 06:05:58;;;;;;;;;;;;;;;2.89;nan;101591.09;5008684;28;19928;-72
2022/03/25 06:08:23;;;;;;;;;;;;;;;3.17;nan;101585.34;5004088;28;20554;-72
2022/03/25 06:10:49;;;;;;;;;;;;;;;3.54;nan;101587.81;5009483;28;20005;-72
2022/03/25 06:13:14;;;;;;;;;;;;;;;3.92;nan;101584.94;5009428;28;19925;-72
2022/03/25 06:15:40;;;;;;;;;;;;;;;4.32;nan;101591.47;5006013;28;20267;-72
2022/03/25 06:18:05;;;;;;;;;;;;;;;4.71;nan;101594.53;5004622;28;19913;-73
2022/03/25 06:20:30;;;;;;;;;;;;;;;5.10;nan;101599.22;5001658;28;19917;-72
2022/03/25 06:22:56;;;;;;;;;;;;;;;5.60;nan;101603.25;5006039;28;19952;-73
2022/03/25 06:25:21;;;;;;;;;;;;;;;6.04;nan;101601.50;5010884;28;20382;-73
2022/03/25 06:27:48;;;;;;;;;;;;;;;6.49;nan;101600.34;5008937;28;19948;-72
2022/03/25 06:30:14;;;;;;;;;;;;;;;6.94;nan;101607.97;5011690;28;19917;-73
2022/03/25 06:32:39;;;;;;;;;;;;;;;7.44;nan;101601.91;5012097;28;19928;-71
2022/03/25 06:35:04;;;;;;;;;;;;;;;7.89;nan;101609.38;5012409;28;19933;-73
2022/03/25 06:37:29;;;;;;;;;;;;;;;8.24;nan;101606.00;5011482;28;19917;-71
2022/03/25 06:39:55;;;;;;;;;;;;;;;8.70;nan;101600.91;5012816;28;19937;-71
2022/03/25 06:42:20;;;;;;;;;;;;;;;9.14;nan;101602.00;5010063;28;19929;-71
2022/03/25 06:44:46;;;;;;;;;;;;;;;9.55;nan;101610.38;5005727;28;19917;-73
2022/03/25 06:47:11;;;;;;;;;;;;;;;9.77;nan;101612.19;5006885;28;19932;-73
2022/03/25 06:49:36;;;;;;;;;;;;;;;10.13;nan;101612.88;5008357;28;19917;-72
2022/03/25 06:52:02;;;;;;;;;;;;;;;10.50;nan;101621.38;5012914;28;19921;-72
2022/03/25 06:54:27;;;;;;;;;;;;;;;10.86;nan;101619.34;5012457;28;19921;-72
2022/03/25 06:56:53;;;;;;;;;;;;;;;11.21;nan;101620.84;5019631;28;19913;-72
2022/03/25 06:59:20;;;;;;;;;;;;;;;11.53;nan;101625.22;5013141;28;19914;-72
2022/03/25 07:01:45;;;;;;;;;;;;;;;11.84;nan;101621.59;5012428;28;19920;-72
2022/03/25 07:04:11;;;;;;;;;;;;;;;12.06;nan;101625.94;4993448;28;20004;-72
2022/03/25 07:06:37;;;;;;;;;;;;;;;12.37;nan;101623.22;4994079;28;19968;-72
2022/03/25 07:09:03;;;;;;;;;;;;;;;12.68;nan;101620.44;5014702;28;19913;-72
2022/03/25 07:11:28;;;;;;;;;;;;;;;12.87;nan;101624.91;5013055;28;19921;-72
2022/03/25 07:13:54;;;;;;;;;;;;;;;12.92;nan;101626.19;5012874;28;20397;-72
2022/03/25 07:16:19;;;;;;;;;;;;;;;13.01;nan;101626.31;5012200;28;19972;-72
2022/03/25 07:18:44;;;;;;;;;;;;;;;13.21;nan;101624.50;5012624;28;20286;-72
2022/03/25 07:21:09;;;;;;;;;;;;;;;13.38;nan;101629.94;5012543;28;19921;-72
2022/03/25 07:23:35;;;;;;;;;;;;;;;13.62;nan;101631.28;5012514;28;19917;-72
2022/03/25 07:26:00;;;;;;;;;;;;;;;13.66;nan;101638.00;5013261;28;19918;-72
2022/03/25 07:28:26;;;;;;;;;;;;;;;13.79;nan;101627.88;5003003;28;20375;-73
2022/03/25 07:30:51;;;;;;;;;;;;;;;13.90;nan;101634.00;4993238;28;19913;-72
2022/03/25 07:33:17;;;;;;;;;;;;;;;14.12;nan;101628.28;5011167;28;19971;-72
2022/03/25 07:35:42;;;;;;;;;;;;;;;14.45;nan;101629.50;4992024;28;19960;-72
2022/03/25 07:38:07;;;;;;;;;;;;;;;14.71;nan;101634.13;5000062;28;20416;-72
2022/03/25 07:40:33;;;;;;;;;;;;;;;15.04;nan;101637.03;5012466;28;19920;-72
2022/03/25 07:43:01;;;;;;;;;;;;;;;15.23;nan;101638.69;5012912;28;19988;-73
2022/03/25 07:45:26;;;;;;;;;;;;;;;15.46;nan;101639.88;5012340;28;19914;-73
2022/03/25 07:47:52;;;;;;;;;;;;;;;15.62;nan;101640.97;5012675;28;19917;-71
2022/03/25 07:50:19;;;;;;;;;;;;;;;15.93;nan;101644.00;5011989;28;19913;-71
2022/03/25 07:52:46;;;;;;;;;;;;;;;16.33;nan;101642.50;5011834;28;20199;-71
2022/03/25 07:55:12;;;;;;;;;;;;;;;16.62;nan;101636.72;5012155;28;20275;-71
2022/03/25 07:57:38;;;;;;;;;;;;;;;16.96;nan;101643.81;5012397;28;19913;-71
2022/03/25 08:00:04;;;;;;;;;;;;;;;17.03;nan;101643.97;5010224;28;19944;-71
2022/03/25 08:02:29;;;;;;;;;;;;;;;16.98;nan;101653.31;5016186;28;20488;-71
2022/03/25 08:04:54;;;;;;;;;;;;;;;17.29;nan;101658.00;5018359;28;20007;-71
2022/03/25 08:07:20;;;;;;;;;;;;;;;17.53;nan;101654.47;4996354;28;19914;-71
2022/03/25 08:09:46;;;;;;;;;;;;;;;17.86;nan;101650.91;5005535;28;19929;-70
2022/03/25 08:12:11;;;;;;;;;;;;;;;18.12;nan;101648.81;5011381;28;19960;-71
2022/03/25 08:14:36;;;;;;;;;;;;;;;18.49;nan;101657.97;5011295;28;20423;-71
2022/03/25 08:17:01;;;;;;;;;;;;;;;18.82;nan;101657.81;5011632;28;19920;-71
2022/03/25 08:19:27;;;;;;;;;;;;;;;19.00;nan;101658.34;5011542;28;19917;-71
2022/03/25 08:21:52;;;;;;;;;;;;;;;19.40;nan;101661.69;5011628;28;19913;-71
2022/03/25 08:29:46;;;;;;;;;;;;;;;20.25;nan;101670.31;5004592;28;20380;-71
2022/03/25 08:32:11;;;;;;;;;;;;;;;20.29;nan;101668.94;5010635;28;19921;-71
2022/03/25 08:34:36;;;;;;;;;;;;;;;20.63;nan;101668.31;5002041;28;19925;-71
2022/03/25 08:37:01;;;;;;;;;;;;;;;20.81;nan;101667.91;4996382;28;20310;-71
2022/03/25 08:39:27;;;;;;;;;;;;;;;21.40;nan;101666.78;5011594;28;19936;-71
2022/03/25 08:41:52;;;;;;;;;;;;;;;21.98;nan;101659.28;5011146;28;19931;-71
2022/03/25 08:44:17;;;;;;;;;;;;;;;22.14;nan;101658.09;5010734;28;19913;-71
2022/03/25 08:46:42;;;;;;;;;;;;;;;22.65;nan;101654.16;5010689;28;20494;-71
2022/03/25 08:49:10;;;;;;;;;;;;;;;22.98;nan;101654.22;5011169;28;19924;-71
2022/03/25 08:51:35;;;;;;;;;;;;;;;23.43;nan;101657.13;5010868;28;20382;-71
2022/03/25 08:54:00;;;;;;;;;;;;;;;23.33;nan;101651.31;5011098;28;19948;-71
2022/03/25 08:56:27;;;;;;;;;;;;;;;23.64;nan;101650.63;5012497;28;19947;-71
2022/03/25 08:58:54;;;;;;;;;;;;;;;23.51;nan;101651.50;5003184;28;19913;-71
2022/03/25 09:01:20;;;;;;;;;;;;;;;23.77;nan;101649.81;5003010;28;19924;-71
2022/03/25 09:03:45;;;;;;;;;;;;;;;23.66;nan;101648.56;4991472;28;20004;-71
2022/03/25 09:06:12;;;;;;;;;;;;;;;23.15;nan;101646.56;5008390;28;19917;-71
2022/03/25 09:08:37;;;;;;;;;;;;;;;23.00;nan;101644.06;5010927;28;20271;-71
2022/03/25 09:11:03;;;;;;;;;;;;;;;23.64;nan;101653.34;5010669;28;19917;-71
2022/03/25 09:13:28;;;;;;;;;;;;;;;23.92;nan;101655.78;5012686;28;20160;-71
2022/03/25 09:15:53;;;;;;;;;;;;;;;24.13;nan;101654.69;5002493;28;19924;-71
2022/03/25 09:18:19;;;;;;;;;;;;;;;24.97;nan;101650.03;5003922;28;19921;-71
2022/03/25 09:20:44;;;;;;;;;;;;;;;25.68;nan;101650.66;5010373;28;19980;-71
2022/03/25 09:23:09;;;;;;;;;;;;;;;26.13;nan;101642.25;5010588;28;19921;-71
2022/03/25 09:25:35;;;;;;;;;;;;;;;25.81;nan;101655.97;5014043;28;19924;-71
2022/03/25 09:28:00;;;;;;;;;;;;;;;25.91;nan;101651.91;5009700;28;19929;-71
2022/03/25 09:30:26;;;;;;;;;;;;;;;25.82;nan;101651.34;4990421;28;20475;-71
2022/03/25 09:32:51;;;;;;;;;;;;;;;25.79;nan;101649.94;4996263;28;20581;-71
2022/03/25 09:35:16;;;;;;;;;;;;;;;25.77;nan;101652.03;5011257;28;19913;-71
2022/03/25 09:37:43;;;;;;;;;;;;;;;25.67;nan;101649.03;5010188;28;19953;-71
2022/03/25 09:40:10;;;;;;;;;;;;;;;26.15;nan;101653.69;5010101;28;20017;-71
2022/03/25 09:42:36;;;;;;;;;;;;;;;26.73;nan;101655.00;5010468;28;20370;-71
2022/03/25 09:45:03;;;;;;;;;;;;;;;26.96;nan;101653.38;5011002;28;20382;-71
2022/03/25 09:47:30;;;;;;;;;;;;;;;27.05;nan;101657.41;5012460;28;20000;-71
2022/03/25 09:49:55;;;;;;;;;;;;;;;27.31;nan;101654.28;5001623;28;19914;-71
2022/03/25 09:52:21;;;;;;;;;;;;;;;27.69;nan;101657.56;4989915;28;20391;-71
2022/03/25 09:54:46;;;;;;;;;;;;;;;27.60;nan;101651.69;5003464;28;19917;-71
2022/03/25 09:57:11;;;;;;;;;;;;;;;26.86;nan;101651.25;5010343;28;20000;-71
2022/03/25 09:59:37;;;;;;;;;;;;;;;26.52;nan;101650.06;5018504;28;19991;-71
2022/03/25 10:02:02;;;;;;;;;;;;;;;27.57;nan;101652.13;5007999;28;19960;-71
2022/03/25 10:04:39;;;;;;;;;;;;;;;28.11;nan;101658.22;5008553;28;19913;-71
2022/03/25 10:07:23;;;;;;;;;;;;;;;28.66;nan;101656.00;5010220;28;19917;-71
2022/03/25 10:10:04;;;;;;;;;;;;;;;28.29;nan;101651.78;5003992;28;19936;-71
2022/03/25 10:12:29;;;;;;;;;;;;;;;27.78;nan;101658.03;5013588;28;20032;-71
2022/03/25 10:15:15;;;;;;;;;;;;;;;28.64;nan;101653.50;4996452;28;19921;-71
2022/03/25 10:17:54;;;;;;;;;;;;;;;29.30;nan;101653.81;5009584;28;19913;-71
2022/03/25 10:20:22;;;;;;;;;;;;;;;29.33;nan;101647.84;5009537;28;19913;-71
2022/03/25 10:23:06;;;;;;;;;;;;;;;29.64;nan;101651.00;5009708;28;19968;-71
2022/03/25 10:25:34;;;;;;;;;;;;;;;28.75;nan;101646.38;5008428;28;19949;-71
2022/03/25 10:27:59;;;;;;;;;;;;;;;28.27;nan;101643.03;5016823;28;20000;-71
2022/03/25 10:30:38;;;;;;;;;;;;;;;29.00;nan;101646.75;5009411;28;20136;-71
2022/03/25 10:33:09;;;;;;;;;;;;;;;29.79;nan;101644.94;5010411;28;19921;-71
2022/03/25 10:35:51;;;;;;;;;;;;;;;29.77;nan;101639.75;5010074;28;19944;-71
2022/03/25 10:38:16;;;;;;;;;;;;;;;30.46;nan;101641.94;5009365;28;19917;-71
2022/03/25 10:40:48;;;;;;;;;;;;;;;31.17;nan;101632.69;5009934;28;19968;-71
2022/03/25 10:43:15;;;;;;;;;;;;;;;30.58;nan;101636.31;5009550;28;19917;-71
2022/03/25 10:45:40;;;;;;;;;;;;;;;29.71;nan;101635.31;5009445;28;19917;-71
2022/03/25 10:48:11;;;;;;;;;;;;;;;29.95;nan;101633.16;5009180;28;20325;-72
2022/03/25 10:50:53;;;;;;;;;;;;;;;30.51;nan;101626.66;5001499;28;19913;-71
2022/03/25 10:53:20;;;;;;;;;;;;;;;31.43;nan;101625.50;5009847;28;19948;-71
2022/03/25 10:55:52;;;;;;;;;;;;;;;32.23;nan;101633.50;5014449;28;19920;-71
2022/03/25 10:58:17;;;;;;;;;;;;;;;32.89;nan;101626.44;4995222;28;19979;-71
2022/03/25 11:00:43;;;;;;;;;;;;;;;33.64;nan;101637.56;4988933;28;19921;-71
2022/03/25 11:03:08;;;;;;;;;;;;;;;33.01;nan;101632.44;5009674;28;20302;-71
2022/03/25 11:05:34;;;;;;;;;;;;;;;32.35;nan;101628.59;5009730;28;19924;-71
2022/03/25 11:08:00;;;;;;;;;;;;;;;32.59;nan;101630.81;5015667;28;19947;-72
2022/03/25 11:10:25;;;;;;;;;;;;;;;33.11;nan;101631.63;4992569;28;19921;-71
2022/03/25 11:12:53;;;;;;;;;;;;;;;33.38;nan;101623.91;4989791;28;20319;-71
2022/03/25 11:15:19;;;;;;;;;;;;;;;32.59;nan;101617.13;5006985;28;20370;-71
2022/03/25 11:17:45;;;;;;;;;;;;;;;32.91;nan;101621.50;5014905;28;19917;-71
2022/03/25 11:20:12;;;;;;;;;;;;;;;32.36;nan;101619.25;5013950;28;20429;-71
2022/03/25 11:22:41;;;;;;;;;;;;;;;32.35;nan;101620.38;5017474;28;19940;-70
2022/03/25 11:25:10;;;;;;;;;;;;;;;32.96;nan;101622.31;5001312;28;19914;-71
2022/03/25 11:27:37;;;;;;;;;;;;;;;33.77;nan;101611.44;5001039;28;20396;-71
2022/03/25 11:30:13;;;;;;;;;;;;;;;34.09;nan;101610.22;5002722;28;19920;-71
2022/03/25 11:32:48;;;;;;;;;;;;;;;33.76;nan;101610.63;5004290;28;19924;-71
2022/03/25 11:35:18;;;;;;;;;;;;;;;33.66;nan;101593.38;5021048;28;20374;-71
2022/03/25 11:37:43;;;;;;;;;;;;;;;34.17;nan;101598.63;5007117;28;19921;-72
2022/03/25 11:40:22;;;;;;;;;;;;;;;34.40;nan;101602.56;5012344;28;19917;-71
2022/03/25 11:42:49;;;;;;;;;;;;;;;33.54;nan;101586.28;5012558;28;19944;-72
2022/03/25 11:45:20;;;;;;;;;;;;;;;33.09;nan;101592.75;5012861;28;20084;-72
2022/03/25 11:48:04;;;;;;;;;;;;;;;33.20;nan;101591.59;5012287;28;19956;-71
2022/03/25 11:50:34;;;;;;;;;;;;;;;33.30;nan;101579.78;5011983;28;19918;-71
2022/03/25 11:53:11;;;;;;;;;;;;;;;32.35;nan;101582.03;5012301;28;20378;-71
2022/03/25 11:55:55;;;;;;;;;;;;;;;31.47;nan;101577.41;5011740;28;19913;-71
2022/03/25 11:58:21;;;;;;;;;;;;;;;29.75;nan;101575.66;5008624;28;19917;-71
2022/03/25 12:00:48;;;;;;;;;;;;;;;29.02;nan;101573.81;5014921;28;19982;-71
2022/03/25 12:03:14;;;;;;;;;;;;;;;28.02;nan;101567.22;5012040;28;20101;-72
2022/03/25 12:05:55;;;;;;;;;;;;;;;27.53;nan;101572.19;5002359;28;19936;-71
2022/03/25 12:08:20;;;;;;;;;;;;;;;26.64;nan;101564.16;5008650;28;19940;-71
2022/03/25 12:10:46;;;;;;;;;;;;;;;25.76;nan;101562.84;5011457;28;19913;-71
2022/03/25 12:13:11;;;;;;;;;;;;;;;25.92;nan;101559.53;5011109;28;19930;-71
2022/03/25 12:15:44;;;;;;;;;;;;;;;25.70;nan;101556.47;5010076;28;19924;-71
2022/03/25 12:18:27;;;;;;;;;;;;;;;25.93;nan;101549.53;5010819;28;19920;-71
2022/03/25 12:20:52;;;;;;;;;;;;;;;25.26;nan;101544.06;5011150;28;19948;-71
2022/03/25 12:23:18;;;;;;;;;;;;;;;25.08;nan;101540.25;5001518;28;20019;-71
2022/03/25 12:25:44;;;;;;;;;;;;;;;24.67;nan;101541.66;5008560;28;20382;-71
2022/03/25 12:28:09;;;;;;;;;;;;;;;24.19;nan;101534.06;5002805;28;19918;-71
2022/03/25 12:30:38;;;;;;;;;;;;;;;23.84;nan;101537.19;5005336;28;19923;-71
2022/03/25 12:33:07;;;;;;;;;;;;;;;23.52;nan;101526.25;5011823;28;19961;-71
2022/03/25 12:35:35;;;;;;;;;;;;;;;23.54;nan;101526.88;5011051;28;20008;-71
2022/03/25 12:38:20;;;;;;;;;;;;;;;23.47;nan;101520.66;5010879;28;19924;-71
2022/03/25 12:40:47;;;;;;;;;;;;;;;23.44;nan;101520.28;5007661;28;19917;-71
2022/03/25 12:43:12;;;;;;;;;;;;;;;23.23;nan;101519.50;5010840;28;19914;-71
2022/03/25 12:45:39;;;;;;;;;;;;;;;22.76;nan;101521.41;5013562;28;20291;-71
2022/03/25 12:48:12;;;;;;;;;;;;;;;22.52;nan;101517.47;5012793;28;19928;-71
2022/03/25 12:50:38;;;;;;;;;;;;;;;22.35;nan;101506.25;5008345;28;19917;-71
2022/03/25 12:53:04;;;;;;;;;;;;;;;22.35;nan;101508.13;5001971;28;19922;-71
2022/03/25 12:55:32;;;;;;;;;;;;;;;22.19;nan;101502.09;5010785;28;19939;-71
2022/03/25 12:58:03;;;;;;;;;;;;;;;22.09;nan;101498.94;5010435;28;20422;-70
2022/03/25 13:00:33;;;;;;;;;;;;;;;22.10;nan;101497.09;5011019;28;19913;-71
2022/03/25 13:02:58;;;;;;;;;;;;;;;22.03;nan;101497.91;5011050;28;21181;-70
2022/03/25 13:05:25;;;;;;;;;;;;;;;21.76;nan;101494.31;5010463;28;19917;-70